sensor_id;sensor_type;location;lat;lon;timestamp;pressure;altitude;pressure_sealevel;temperature;humidity
61086;BME280;46967;48.876;2.136;2023-04-08T00:00:00;102083.44;;;7.69;78.57
61086;BME280;46967;48.876;2.136;2023-04-08T00:02:25;102082.53;;;7.61;78.95
61086;BME280;46967;48.876;2.136;2023-04-08T00:04:51;102076.50;;;7.56;78.89
61086;BME280;46967;48.876;2.136;2023-04-08T00:07:16;102085.13;;;7.52;78.90
61086;BME280;46967;48.876;2.136;2023-04-08T00:09:41;102084.22;;;7.50;79.27
61086;BME280;46967;48.876;2.136;2023-04-08T00:12:06;102091.13;;;7.49;79.08
61086;BME280;46967;48.876;2.136;2023-04-08T00:14:32;102080.75;;;7.41;79.00
61086;BME280;46967;48.876;2.136;2023-04-08T00:16:57;102086.75;;;7.36;79.03
61086;BME280;46967;48.876;2.136;2023-04-08T00:19:22;102097.06;;;7.28;79.43
61086;BME280;46967;48.876;2.136;2023-04-08T00:21:49;102095.31;;;7.21;79.65
61086;BME280;46967;48.876;2.136;2023-04-08T00:24:15;102090.97;;;7.15;79.99
61086;BME280;46967;48.876;2.136;2023-04-08T00:26:40;102090.97;;;7.11;80.16
61086;BME280;46967;48.876;2.136;2023-04-08T00:29:06;102084.06;;;7.10;79.87
61086;BME280;46967;48.876;2.136;2023-04-08T00:31:31;102092.66;;;7.12;79.62
61086;BME280;46967;48.876;2.136;2023-04-08T00:33:56;102088.38;;;7.11;79.60
61086;BME280;46967;48.876;2.136;2023-04-08T00:36:22;102090.97;;;7.09;79.54
61086;BME280;46967;48.876;2.136;2023-04-08T00:38:47;102091.75;;;7.02;79.54
61086;BME280;46967;48.876;2.136;2023-04-08T00:41:12;102093.44;;;6.95;79.92
61086;BME280;46967;48.876;2.136;2023-04-08T00:43:38;102100.31;;;6.96;79.44
61086;BME280;46967;48.876;2.136;2023-04-08T00:46:03;102096.88;;;6.93;79.59
61086;BME280;46967;48.876;2.136;2023-04-08T00:48:29;102098.59;;;6.92;79.67
61086;BME280;46967;48.876;2.136;2023-04-08T00:50:55;102093.38;;;6.86;79.55
61086;BME280;46967;48.876;2.136;2023-04-08T00:53:21;102102.81;;;6.81;79.57
61086;BME280;46967;48.876;2.136;2023-04-08T00:55:46;102107.09;;;6.79;79.24
61086;BME280;46967;48.876;2.136;2023-04-08T00:58:12;102107.09;;;6.74;79.33
61086;BME280;46967;48.876;2.136;2023-04-08T01:00:43;102099.34;;;6.73;79.65
61086;BME280;46967;48.876;2.136;2023-04-08T01:03:15;102096.75;;;6.71;79.45
61086;BME280;46967;48.876;2.136;2023-04-08T01:08:34;102102.72;;;6.65;79.70
61086;BME280;46967;48.876;2.136;2023-04-08T01:11:02;102106.13;;;6.61;79.77
61086;BME280;46967;48.876;2.136;2023-04-08T01:13:33;102102.66;;;6.59;80.34
61086;BME280;46967;48.876;2.136;2023-04-08T01:16:01;102106.94;;;6.54;80.36
61086;BME280;46967;48.876;2.136;2023-04-08T01:18:28;102106.88;;;6.46;80.26
61086;BME280;46967;48.876;2.136;2023-04-08T01:20:54;102104.22;;;6.39;80.46
61086;BME280;46967;48.876;2.136;2023-04-08T01:25:50;102105.88;;;6.29;80.60
61086;BME280;46967;48.876;2.136;2023-04-08T01:28:18;102108.47;;;6.30;79.97
61086;BME280;46967;48.876;2.136;2023-04-08T01:30:45;102093.00;;;6.32;79.74
61086;BME280;46967;48.876;2.136;2023-04-08T01:33:14;102099.00;;;6.31;79.63
61086;BME280;46967;48.876;2.136;2023-04-08T01:35:40;102101.56;;;6.28;80.07
61086;BME280;46967;48.876;2.136;2023-04-08T01:38:08;102102.41;;;6.27;80.25
61086;BME280;46967;48.876;2.136;2023-04-08T01:40:34;102107.50;;;6.21;80.47
61086;BME280;46967;48.876;2.136;2023-04-08T01:43:02;102111.75;;;6.14;80.66
61086;BME280;46967;48.876;2.136;2023-04-08T01:45:29;102107.44;;;6.13;80.69
61086;BME280;46967;48.876;2.136;2023-04-08T01:47:55;102103.09;;;6.09;80.72
61086;BME280;46967;48.876;2.136;2023-04-08T01:50:22;102101.34;;;6.05;81.03
61086;BME280;46967;48.876;2.136;2023-04-08T01:52:49;102100.44;;;6.03;80.87
61086;BME280;46967;48.876;2.136;2023-04-08T01:55:17;102106.47;;;6.00;81.87
61086;BME280;46967;48.876;2.136;2023-04-08T01:57:47;102099.59;;;6.01;81.75
61086;BME280;46967;48.876;2.136;2023-04-08T02:00:17;102104.72;;;5.99;82.11
61086;BME280;46967;48.876;2.136;2023-04-08T02:02:44;102105.59;;;5.98;82.13
61086;BME280;46967;48.876;2.136;2023-04-08T02:05:12;102101.28;;;5.97;81.83
61086;BME280;46967;48.876;2.136;2023-04-08T02:07:37;102103.00;;;5.96;81.75
61086;BME280;46967;48.876;2.136;2023-04-08T02:10:03;102103.78;;;5.92;81.25
61086;BME280;46967;48.876;2.136;2023-04-08T02:12:29;102100.31;;;5.90;80.62
61086;BME280;46967;48.876;2.136;2023-04-08T02:14:54;102107.16;;;5.88;80.98
61086;BME280;46967;48.876;2.136;2023-04-08T02:20:10;102102.75;;;5.76;81.61
61086;BME280;46967;48.876;2.136;2023-04-08T02:22:42;102101.91;;;5.76;81.33
61086;BME280;46967;48.876;2.136;2023-04-08T02:25:12;102106.16;;;5.75;81.13
61086;BME280;46967;48.876;2.136;2023-04-08T02:27:39;102097.53;;;5.72;82.20
61086;BME280;46967;48.876;2.136;2023-04-08T02:30:06;102102.69;;;5.70;81.49
61086;BME280;46967;48.876;2.136;2023-04-08T02:32:33;102098.34;;;5.68;81.47
61086;BME280;46967;48.876;2.136;2023-04-08T02:35:00;102107.69;;;5.58;82.18
61086;BME280;46967;48.876;2.136;2023-04-08T02:37:27;102103.41;;;5.57;82.42
61086;BME280;46967;48.876;2.136;2023-04-08T02:39:52;102112.00;;;5.60;82.30
61086;BME280;46967;48.876;2.136;2023-04-08T02:42:18;102111.97;;;5.57;82.35
61086;BME280;46967;48.876;2.136;2023-04-08T02:44:43;102113.69;;;5.55;82.37
61086;BME280;46967;48.876;2.136;2023-04-08T02:47:08;102111.09;;;5.54;82.71
61086;BME280;46967;48.876;2.136;2023-04-08T02:49:34;102103.38;;;5.55;81.94
61086;BME280;46967;48.876;2.136;2023-04-08T02:51:59;102106.72;;;5.50;83.05
61086;BME280;46967;48.876;2.136;2023-04-08T02:54:24;102107.56;;;5.49;82.58
61086;BME280;46967;48.876;2.136;2023-04-08T02:56:50;102109.31;;;5.51;82.46
61086;BME280;46967;48.876;2.136;2023-04-08T02:59:15;102107.53;;;5.47;82.74
61086;BME280;46967;48.876;2.136;2023-04-08T03:01:41;102113.59;;;5.48;83.08
61086;BME280;46967;48.876;2.136;2023-04-08T03:04:06;102106.72;;;5.48;83.22
61086;BME280;46967;48.876;2.136;2023-04-08T03:06:32;102099.81;;;5.47;83.35
61086;BME280;46967;48.876;2.136;2023-04-08T03:08:57;102104.06;;;5.42;83.55
61086;BME280;46967;48.876;2.136;2023-04-08T03:11:23;102103.19;;;5.40;82.96
61086;BME280;46967;48.876;2.136;2023-04-08T03:13:48;102100.56;;;5.35;83.14
61086;BME280;46967;48.876;2.136;2023-04-08T03:16:13;102102.22;;;5.32;83.30
61086;BME280;46967;48.876;2.136;2023-04-08T03:18:39;102109.97;;;5.32;83.61
61086;BME280;46967;48.876;2.136;2023-04-08T03:21:05;102103.03;;;5.28;83.06
61086;BME280;46967;48.876;2.136;2023-04-08T03:23:30;102109.97;;;5.32;83.06
61086;BME280;46967;48.876;2.136;2023-04-08T03:25:56;102108.19;;;5.29;82.50
61086;BME280;46967;48.876;2.136;2023-04-08T03:28:21;102113.31;;;5.26;82.42
61086;BME280;46967;48.876;2.136;2023-04-08T03:30:46;102104.69;;;5.22;82.38
61086;BME280;46967;48.876;2.136;2023-04-08T03:33:11;102117.56;;;5.22;82.27
61086;BME280;46967;48.876;2.136;2023-04-08T03:35:37;102113.22;;;5.20;81.91
61086;BME280;46967;48.876;2.136;2023-04-08T03:38:03;102108.06;;;5.20;81.71
61086;BME280;46967;48.876;2.136;2023-04-08T03:40:28;102108.00;;;5.15;82.05
61086;BME280;46967;48.876;2.136;2023-04-08T03:42:54;102104.50;;;5.10;82.64
61086;BME280;46967;48.876;2.136;2023-04-08T03:45:19;102112.16;;;5.04;82.52
61086;BME280;46967;48.876;2.136;2023-04-08T03:47:44;102109.53;;;5.01;82.47
61086;BME280;46967;48.876;2.136;2023-04-08T03:50:10;102109.47;;;4.98;82.34
61086;BME280;46967;48.876;2.136;2023-04-08T03:52:35;102118.91;;;4.96;82.36
61086;BME280;46967;48.876;2.136;2023-04-08T03:55:01;102115.50;;;4.97;82.52
61086;BME280;46967;48.876;2.136;2023-04-08T03:57:26;102112.00;;;4.95;82.51
61086;BME280;46967;48.876;2.136;2023-04-08T03:59:52;102111.09;;;4.89;82.79
61086;BME280;46967;48.876;2.136;2023-04-08T04:02:17;102122.22;;;4.90;82.44
61086;BME280;46967;48.876;2.136;2023-04-08T04:04:42;102118.75;;;4.86;82.48
61086;BME280;46967;48.876;2.136;2023-04-08T04:07:08;102127.34;;;4.87;82.46
61086;BME280;46967;48.876;2.136;2023-04-08T04:09:33;102117.81;;;4.81;82.64
61086;BME280;46967;48.876;2.136;2023-04-08T04:11:59;102122.97;;;4.81;83.84
61086;BME280;46967;48.876;2.136;2023-04-08T04:14:24;102128.13;;;4.81;83.34
61086;BME280;46967;48.876;2.136;2023-04-08T04:16:49;102120.38;;;4.80;83.16
61086;BME280;46967;48.876;2.136;2023-04-08T04:19:15;102121.22;;;4.80;82.75
61086;BME280;46967;48.876;2.136;2023-04-08T04:21:41;102113.50;;;4.79;82.36
61086;BME280;46967;48.876;2.136;2023-04-08T04:24:07;102118.66;;;4.80;82.42
61086;BME280;46967;48.876;2.136;2023-04-08T04:26:32;102123.78;;;4.79;82.56
61086;BME280;46967;48.876;2.136;2023-04-08T04:28:57;102128.84;;;4.74;82.85
61086;BME280;46967;48.876;2.136;2023-04-08T04:31:23;102121.97;;;4.71;83.20
61086;BME280;46967;48.876;2.136;2023-04-08T04:33:52;102127.03;;;4.67;83.63
61086;BME280;46967;48.876;2.136;2023-04-08T04:36:17;102128.78;;;4.68;83.67
61086;BME280;46967;48.876;2.136;2023-04-08T04:38:44;102136.44;;;4.63;83.25
61086;BME280;46967;48.876;2.136;2023-04-08T04:41:09;102135.53;;;4.63;82.96
61086;BME280;46967;48.876;2.136;2023-04-08T04:43:35;102138.06;;;4.60;82.91
61086;BME280;46967;48.876;2.136;2023-04-08T04:46:01;102141.47;;;4.57;83.06
61086;BME280;46967;48.876;2.136;2023-04-08T04:48:28;102146.56;;;4.54;83.22
61086;BME280;46967;48.876;2.136;2023-04-08T04:50:58;102148.25;;;4.55;83.27
61086;BME280;46967;48.876;2.136;2023-04-08T04:53:24;102147.38;;;4.53;82.97
61086;BME280;46967;48.876;2.136;2023-04-08T04:55:50;102149.06;;;4.49;83.04
61086;BME280;46967;48.876;2.136;2023-04-08T04:58:15;102156.72;;;4.46;83.05
61086;BME280;46967;48.876;2.136;2023-04-08T05:00:41;102156.69;;;4.45;82.81
61086;BME280;46967;48.876;2.136;2023-04-08T05:03:06;102158.38;;;4.43;83.10
61086;BME280;46967;48.876;2.136;2023-04-08T05:05:31;102165.22;;;4.44;82.27
61086;BME280;46967;48.876;2.136;2023-04-08T05:07:57;102166.94;;;4.43;82.52
61086;BME280;46967;48.876;2.136;2023-04-08T05:10:22;102170.28;;;4.39;82.65
61086;BME280;46967;48.876;2.136;2023-04-08T05:12:47;102164.16;;;4.32;82.95
61086;BME280;46967;48.876;2.136;2023-04-08T05:15:13;102170.97;;;4.29;82.99
61086;BME280;46967;48.876;2.136;2023-04-08T05:17:38;102168.34;;;4.26;83.52
61086;BME280;46967;48.876;2.136;2023-04-08T05:20:04;102170.00;;;4.22;83.42
61086;BME280;46967;48.876;2.136;2023-04-08T05:22:29;102176.06;;;4.26;83.34
61086;BME280;46967;48.876;2.136;2023-04-08T05:24:55;102172.59;;;4.24;83.10
61086;BME280;46967;48.876;2.136;2023-04-08T05:27:20;102182.06;;;4.26;83.02
61086;BME280;46967;48.876;2.136;2023-04-08T05:29:46;102187.16;;;4.25;82.96
61086;BME280;46967;48.876;2.136;2023-04-08T05:32:11;102188.97;;;4.29;82.93
61086;BME280;46967;48.876;2.136;2023-04-08T05:34:36;102186.38;;;4.29;83.14
61086;BME280;46967;48.876;2.136;2023-04-08T05:37:02;102196.72;;;4.32;82.91
61086;BME280;46967;48.876;2.136;2023-04-08T05:39:27;102194.94;;;4.28;83.31
61086;BME280;46967;48.876;2.136;2023-04-08T05:41:52;102195.88;;;4.31;83.09
61086;BME280;46967;48.876;2.136;2023-04-08T05:44:18;102201.91;;;4.33;83.51
61086;BME280;46967;48.876;2.136;2023-04-08T05:46:43;102200.16;;;4.32;83.82
61086;BME280;46967;48.876;2.136;2023-04-08T05:49:08;102205.31;;;4.34;83.68
61086;BME280;46967;48.876;2.136;2023-04-08T05:51:34;102199.34;;;4.35;83.86
61086;BME280;46967;48.876;2.136;2023-04-08T05:53:59;102199.38;;;4.37;83.64
61086;BME280;46967;48.876;2.136;2023-04-08T05:56:25;102208.84;;;4.39;83.63
61086;BME280;46967;48.876;2.136;2023-04-08T05:58:50;102207.97;;;4.39;83.45
61086;BME280;46967;48.876;2.136;2023-04-08T06:01:15;102205.28;;;4.32;84.34
61086;BME280;46967;48.876;2.136;2023-04-08T06:03:41;102212.31;;;4.41;84.75
61086;BME280;46967;48.876;2.136;2023-04-08T06:06:10;102218.38;;;4.45;84.75
61086;BME280;46967;48.876;2.136;2023-04-08T06:08:36;102223.72;;;4.56;84.55
61086;BME280;46967;48.876;2.136;2023-04-08T06:11:01;102221.28;;;4.63;84.85
61086;BME280;46967;48.876;2.136;2023-04-08T06:13:28;102226.53;;;4.68;85.31
61086;BME280;46967;48.876;2.136;2023-04-08T06:15:53;102218.03;;;4.75;85.67
61086;BME280;46967;48.876;2.136;2023-04-08T06:18:19;102223.34;;;4.84;86.36
61086;BME280;46967;48.876;2.136;2023-04-08T06:20:45;102226.97;;;4.96;86.99
61086;BME280;46967;48.876;2.136;2023-04-08T06:23:10;102217.63;;;5.02;86.65
61086;BME280;46967;48.876;2.136;2023-04-08T06:25:36;102221.19;;;5.12;87.22
61086;BME280;46967;48.876;2.136;2023-04-08T06:28:02;102226.44;;;5.17;87.69
61086;BME280;46967;48.876;2.136;2023-04-08T06:30:27;102236.00;;;5.25;87.12
61086;BME280;46967;48.876;2.136;2023-04-08T06:32:53;102232.66;;;5.33;87.24
61086;BME280;46967;48.876;2.136;2023-04-08T06:35:18;102237.97;;;5.42;87.06
61086;BME280;46967;48.876;2.136;2023-04-08T06:37:43;102242.28;;;5.43;87.23
61086;BME280;46967;48.876;2.136;2023-04-08T06:40:09;102249.28;;;5.53;87.17
61086;BME280;46967;48.876;2.136;2023-04-08T06:42:34;102245.13;;;5.63;87.29
61086;BME280;46967;48.876;2.136;2023-04-08T06:45:03;102252.91;;;5.68;87.38
61086;BME280;46967;48.876;2.136;2023-04-08T06:47:28;102252.19;;;5.76;86.78
61086;BME280;46967;48.876;2.136;2023-04-08T06:49:53;102258.25;;;5.83;86.64
61086;BME280;46967;48.876;2.136;2023-04-08T06:52:19;102266.97;;;5.91;86.53
61086;BME280;46967;48.876;2.136;2023-04-08T06:54:44;102267.09;;;5.99;86.10
61086;BME280;46967;48.876;2.136;2023-04-08T06:57:10;102261.94;;;6.01;86.64
61086;BME280;46967;48.876;2.136;2023-04-08T06:59:36;102267.16;;;6.04;86.12
61086;BME280;46967;48.876;2.136;2023-04-08T07:02:01;102271.59;;;6.14;85.35
61086;BME280;46967;48.876;2.136;2023-04-08T07:04:26;102272.44;;;6.13;85.37
61086;BME280;46967;48.876;2.136;2023-04-08T07:06:52;102263.91;;;6.19;85.12
61086;BME280;46967;48.876;2.136;2023-04-08T07:09:17;102268.22;;;6.21;84.46
61086;BME280;46967;48.876;2.136;2023-04-08T07:11:42;102269.97;;;6.24;84.88
61086;BME280;46967;48.876;2.136;2023-04-08T07:14:08;102270.97;;;6.35;84.60
61086;BME280;46967;48.876;2.136;2023-04-08T07:16:33;102272.78;;;6.45;84.35
61086;BME280;46967;48.876;2.136;2023-04-08T07:18:58;102272.03;;;6.54;84.10
61086;BME280;46967;48.876;2.136;2023-04-08T07:21:24;102274.72;;;6.66;83.75
61086;BME280;46967;48.876;2.136;2023-04-08T07:23:49;102273.13;;;6.78;83.30
61086;BME280;46967;48.876;2.136;2023-04-08T07:26:15;102269.75;;;6.88;82.69
61086;BME280;46967;48.876;2.136;2023-04-08T07:28:40;102276.72;;;6.95;82.44
61086;BME280;46967;48.876;2.136;2023-04-08T07:31:14;102279.41;;;7.09;82.19
61086;BME280;46967;48.876;2.136;2023-04-08T07:33:40;102282.03;;;7.17;81.60
61086;BME280;46967;48.876;2.136;2023-04-08T07:36:06;102276.94;;;7.26;80.98
61086;BME280;46967;48.876;2.136;2023-04-08T07:38:31;102271.84;;;7.34;81.49
61086;BME280;46967;48.876;2.136;2023-04-08T07:40:56;102272.75;;;7.43;80.32
61086;BME280;46967;48.876;2.136;2023-04-08T07:43:22;102271.94;;;7.46;80.41
61086;BME280;46967;48.876;2.136;2023-04-08T07:45:47;102272.00;;;7.58;79.52
61086;BME280;46967;48.876;2.136;2023-04-08T07:48:13;102271.16;;;7.62;79.25
61086;BME280;46967;48.876;2.136;2023-04-08T07:50:38;102271.22;;;7.70;78.74
61086;BME280;46967;48.876;2.136;2023-04-08T07:53:03;102273.00;;;7.80;78.95
61086;BME280;46967;48.876;2.136;2023-04-08T07:55:33;102275.63;;;7.87;78.79
61086;BME280;46967;48.876;2.136;2023-04-08T07:57:58;102276.50;;;7.93;78.28
61086;BME280;46967;48.876;2.136;2023-04-08T08:00:24;102275.72;;;8.14;76.04
61086;BME280;46967;48.876;2.136;2023-04-08T08:02:49;102273.16;;;8.21;75.91
61086;BME280;46967;48.876;2.136;2023-04-08T08:05:15;102275.88;;;8.44;75.52
61086;BME280;46967;48.876;2.136;2023-04-08T08:07:40;102266.41;;;8.54;74.96
61086;BME280;46967;48.876;2.136;2023-04-08T08:10:06;102273.31;;;8.65;73.20
61086;BME280;46967;48.876;2.136;2023-04-08T08:12:31;102267.28;;;8.74;74.20
61086;BME280;46967;48.876;2.136;2023-04-08T08:14:57;102265.56;;;8.88;72.74
61086;BME280;46967;48.876;2.136;2023-04-08T08:17:23;102273.34;;;8.84;71.63
61086;BME280;46967;48.876;2.136;2023-04-08T08:19:49;102276.78;;;8.87;71.27
61086;BME280;46967;48.876;2.136;2023-04-08T08:22:15;102284.56;;;9.07;71.73
61086;BME280;46967;48.876;2.136;2023-04-08T08:24:40;102280.25;;;9.13;70.48
61086;BME280;46967;48.876;2.136;2023-04-08T08:27:09;102288.00;;;9.30;70.24
61086;BME280;46967;48.876;2.136;2023-04-08T08:29:34;102281.94;;;9.34;69.64
61086;BME280;46967;48.876;2.136;2023-04-08T08:32:01;102287.13;;;9.37;69.38
61086;BME280;46967;48.876;2.136;2023-04-08T08:34:27;102294.03;;;9.38;69.61
61086;BME280;46967;48.876;2.136;2023-04-08T08:36:53;102293.16;;;9.53;70.21
61086;BME280;46967;48.876;2.136;2023-04-08T08:39:18;102287.94;;;9.62;68.20
61086;BME280;46967;48.876;2.136;2023-04-08T08:41:43;102290.53;;;9.73;69.09
61086;BME280;46967;48.876;2.136;2023-04-08T08:44:10;102292.19;;;9.91;68.51
61086;BME280;46967;48.876;2.136;2023-04-08T08:46:42;102293.91;;;10.03;67.44
61086;BME280;46967;48.876;2.136;2023-04-08T08:49:08;102288.69;;;10.09;66.53
61086;BME280;46967;48.876;2.136;2023-04-08T08:51:33;102290.34;;;10.18;66.42
61086;BME280;46967;48.876;2.136;2023-04-08T08:54:02;102285.09;;;10.39;67.30
61086;BME280;46967;48.876;2.136;2023-04-08T08:56:28;102280.69;;;10.55;65.95
61086;BME280;46967;48.876;2.136;2023-04-08T08:58:54;102282.34;;;10.65;64.56
61086;BME280;46967;48.876;2.136;2023-04-08T09:04:17;102278.84;;;10.71;64.72
61086;BME280;46967;48.876;2.136;2023-04-08T09:06:49;102282.34;;;10.62;64.82
61086;BME280;46967;48.876;2.136;2023-04-08T09:09:15;102285.72;;;10.77;64.67
61086;BME280;46967;48.876;2.136;2023-04-08T09:11:44;102283.03;;;10.92;64.51
61086;BME280;46967;48.876;2.136;2023-04-08T09:16:42;102285.59;;;10.95;63.76
61086;BME280;46967;48.876;2.136;2023-04-08T09:19:09;102290.78;;;10.95;63.90
61086;BME280;46967;48.876;2.136;2023-04-08T09:21:35;102283.81;;;10.99;64.31
61086;BME280;46967;48.876;2.136;2023-04-08T09:24:00;102288.94;;;11.10;63.24
61086;BME280;46967;48.876;2.136;2023-04-08T09:26:26;102285.50;;;11.08;62.26
61086;BME280;46967;48.876;2.136;2023-04-08T09:31:27;102288.09;;;11.06;61.91
61086;BME280;46967;48.876;2.136;2023-04-08T09:33:55;102294.22;;;10.99;63.22
61086;BME280;46967;48.876;2.136;2023-04-08T09:36:21;102293.19;;;11.20;63.77
61086;BME280;46967;48.876;2.136;2023-04-08T09:38:46;102290.44;;;11.37;63.07
61086;BME280;46967;48.876;2.136;2023-04-08T09:41:14;102289.34;;;11.59;63.25
61086;BME280;46967;48.876;2.136;2023-04-08T09:43:46;102294.38;;;11.73;62.70
61086;BME280;46967;48.876;2.136;2023-04-08T09:46:17;102286.41;;;11.92;62.57
61086;BME280;46967;48.876;2.136;2023-04-08T09:48:55;102302.16;;;11.76;61.87
61086;BME280;46967;48.876;2.136;2023-04-08T09:51:23;102292.69;;;11.72;61.59
61086;BME280;46967;48.876;2.136;2023-04-08T09:53:55;102295.16;;;11.83;62.32
61086;BME280;46967;48.876;2.136;2023-04-08T09:56:26;102293.13;;;12.10;62.21
61086;BME280;46967;48.876;2.136;2023-04-08T09:58:58;102291.09;;;12.32;61.80
61086;BME280;46967;48.876;2.136;2023-04-08T10:01:27;102291.94;;;12.37;59.29
61086;BME280;46967;48.876;2.136;2023-04-08T10:03:57;102299.72;;;12.39;59.42
61086;BME280;46967;48.876;2.136;2023-04-08T10:06:27;102290.31;;;12.27;58.51
61086;BME280;46967;48.876;2.136;2023-04-08T10:08:55;102292.75;;;12.39;58.27
61086;BME280;46967;48.876;2.136;2023-04-08T10:11:20;102294.94;;;12.67;60.48
61086;BME280;46967;48.876;2.136;2023-04-08T10:13:46;102288.81;;;12.73;59.56
61086;BME280;46967;48.876;2.136;2023-04-08T10:18:41;102293.47;;;13.07;57.35
61086;BME280;46967;48.876;2.136;2023-04-08T10:21:37;102288.03;;;13.20;56.97
61086;BME280;46967;48.876;2.136;2023-04-08T10:24:07;102283.47;;;13.32;57.65
61086;BME280;46967;48.876;2.136;2023-04-08T10:26:43;102280.69;;;13.44;56.67
61086;BME280;46967;48.876;2.136;2023-04-08T10:31:48;102274.34;;;13.57;57.86
61086;BME280;46967;48.876;2.136;2023-04-08T10:34:24;102271.59;;;13.65;55.71
61086;BME280;46967;48.876;2.136;2023-04-08T10:36:52;102265.38;;;13.72;56.63
61086;BME280;46967;48.876;2.136;2023-04-08T10:39:19;102268.78;;;13.76;55.64
61086;BME280;46967;48.876;2.136;2023-04-08T10:41:47;102266.16;;;13.76;53.84
61086;BME280;46967;48.876;2.136;2023-04-08T10:46:42;102251.38;;;13.75;53.45
61086;BME280;46967;48.876;2.136;2023-04-08T10:49:07;102249.09;;;14.02;54.69
61086;BME280;46967;48.876;2.136;2023-04-08T10:51:33;102251.47;;;14.14;55.19
61086;BME280;46967;48.876;2.136;2023-04-08T10:54:12;102256.31;;;13.90;53.44
61086;BME280;46967;48.876;2.136;2023-04-08T10:59:10;102239.56;;;14.01;53.64
61086;BME280;46967;48.876;2.136;2023-04-08T11:01:39;102245.81;;;13.93;51.90
61086;BME280;46967;48.876;2.136;2023-04-08T11:04:16;102243.28;;;13.89;53.01
61086;BME280;46967;48.876;2.136;2023-04-08T11:06:45;102225.38;;;14.12;52.39
61086;BME280;46967;48.876;2.136;2023-04-08T11:09:12;102223.31;;;14.27;52.39
61086;BME280;46967;48.876;2.136;2023-04-08T11:11:37;102225.09;;;14.26;53.53
61086;BME280;46967;48.876;2.136;2023-04-08T11:14:03;102230.91;;;14.38;54.11
61086;BME280;46967;48.876;2.136;2023-04-08T11:16:30;102222.50;;;14.64;52.82
61086;BME280;46967;48.876;2.136;2023-04-08T11:18:56;102225.44;;;14.48;50.67
61086;BME280;46967;48.876;2.136;2023-04-08T11:21:23;102222.91;;;14.45;49.93
61086;BME280;46967;48.876;2.136;2023-04-08T11:23:50;102217.41;;;14.58;50.92
61086;BME280;46967;48.876;2.136;2023-04-08T11:26:17;102218.94;;;14.66;49.76
61086;BME280;46967;48.876;2.136;2023-04-08T11:28:43;102228.41;;;14.72;51.27
61086;BME280;46967;48.876;2.136;2023-04-08T11:31:10;102218.13;;;15.00;50.60
61086;BME280;46967;48.876;2.136;2023-04-08T11:33:35;102218.91;;;15.02;50.90
61086;BME280;46967;48.876;2.136;2023-04-08T11:36:01;102211.88;;;15.04;48.40
61086;BME280;46967;48.876;2.136;2023-04-08T11:38:30;102211.66;;;15.14;47.77
61086;BME280;46967;48.876;2.136;2023-04-08T11:40:56;102212.47;;;15.16;47.92
61086;BME280;46967;48.876;2.136;2023-04-08T11:43:25;102211.69;;;15.12;47.69
61086;BME280;46967;48.876;2.136;2023-04-08T11:45:51;102216.44;;;15.31;48.62
61086;BME280;46967;48.876;2.136;2023-04-08T11:48:16;102203.28;;;15.34;48.18
61086;BME280;46967;48.876;2.136;2023-04-08T11:50:43;102211.41;;;15.54;48.79
61086;BME280;46967;48.876;2.136;2023-04-08T11:53:19;102202.31;;;15.68;49.06
61086;BME280;46967;48.876;2.136;2023-04-08T11:55:46;102195.94;;;15.78;48.31
61086;BME280;46967;48.876;2.136;2023-04-08T11:58:11;102198.22;;;15.89;48.66
61086;BME280;46967;48.876;2.136;2023-04-08T12:00:36;102195.59;;;15.89;46.37
61086;BME280;46967;48.876;2.136;2023-04-08T12:03:02;102196.16;;;15.99;46.84
61086;BME280;46967;48.876;2.136;2023-04-08T12:05:28;102197.34;;;16.18;47.44
61086;BME280;46967;48.876;2.136;2023-04-08T12:07:53;102195.38;;;16.25;45.58
61086;BME280;46967;48.876;2.136;2023-04-08T12:10:19;102185.50;;;16.33;45.23
61086;BME280;46967;48.876;2.136;2023-04-08T12:12:44;102181.84;;;16.39;44.54
61086;BME280;46967;48.876;2.136;2023-04-08T12:15:10;102192.47;;;16.34;44.32
61086;BME280;46967;48.876;2.136;2023-04-08T12:17:36;102181.34;;;16.54;45.72
61086;BME280;46967;48.876;2.136;2023-04-08T12:20:04;102181.94;;;16.62;45.24
61086;BME280;46967;48.876;2.136;2023-04-08T12:22:29;102178.19;;;16.70;43.59
61086;BME280;46967;48.876;2.136;2023-04-08T12:24:55;102177.19;;;16.74;43.53
61086;BME280;46967;48.876;2.136;2023-04-08T12:27:20;102172.50;;;16.83;46.08
61086;BME280;46967;48.876;2.136;2023-04-08T12:29:46;102169.38;;;16.99;44.33
61086;BME280;46967;48.876;2.136;2023-04-08T12:32:13;102173.03;;;17.18;44.12
61086;BME280;46967;48.876;2.136;2023-04-08T12:34:39;102168.63;;;17.19;43.93
61086;BME280;46967;48.876;2.136;2023-04-08T12:37:04;102171.78;;;17.05;44.21
61086;BME280;46967;48.876;2.136;2023-04-08T12:39:29;102166.69;;;17.26;42.90
61086;BME280;46967;48.876;2.136;2023-04-08T12:41:55;102170.16;;;17.50;43.35
61086;BME280;46967;48.876;2.136;2023-04-08T12:44:21;102168.81;;;17.62;43.64
61086;BME280;46967;48.876;2.136;2023-04-08T12:46:46;102170.75;;;17.80;42.64
61086;BME280;46967;48.876;2.136;2023-04-08T12:49:11;102162.50;;;17.91;43.60
61086;BME280;46967;48.876;2.136;2023-04-08T12:51:37;102163.16;;;17.96;42.69
61086;BME280;46967;48.876;2.136;2023-04-08T12:54:03;102155.06;;;18.02;41.11
61086;BME280;46967;48.876;2.136;2023-04-08T12:56:29;102163.16;;;17.96;41.03
61086;BME280;46967;48.876;2.136;2023-04-08T12:58:55;102148.84;;;18.05;40.06
61086;BME280;46967;48.876;2.136;2023-04-08T13:01:21;102149.63;;;18.07;38.84
61086;BME280;46967;48.876;2.136;2023-04-08T13:03:47;102149.19;;;18.18;38.22
61086;BME280;46967;48.876;2.136;2023-04-08T13:06:12;102143.41;;;18.30;38.54
61086;BME280;46967;48.876;2.136;2023-04-08T13:08:38;102139.81;;;18.33;40.14
61086;BME280;46967;48.876;2.136;2023-04-08T13:11:03;102148.94;;;18.24;40.36
61086;BME280;46967;48.876;2.136;2023-04-08T13:13:29;102139.03;;;18.31;39.89
61086;BME280;46967;48.876;2.136;2023-04-08T13:15:54;102142.78;;;18.45;39.99
61086;BME280;46967;48.876;2.136;2023-04-08T13:18:21;102148.81;;;18.47;39.09